createdAt,value
2022-12-25T00:24:57.879Z,98046.53
2022-12-25T00:55:02.095Z,98017.72
2022-12-25T01:25:07.115Z,98051.88
2022-12-25T01:55:18.321Z,98048.03
2022-12-25T02:25:34.607Z,98020.72
2022-12-25T02:55:57.890Z,98054.56
2022-12-25T03:26:19.670Z,98026.75
2022-12-25T03:56:41.316Z,98007.16
2022-12-25T04:27:02.951Z,97995.41
2022-12-25T04:57:07.039Z,97995.03
2022-12-25T05:27:11.167Z,97993.84
2022-12-25T05:57:15.202Z,97969.72
2022-12-25T06:27:19.189Z,97952.16
2022-12-25T06:57:23.203Z,97955.47
2022-12-25T07:27:27.220Z,97912.53
2022-12-25T07:57:31.249Z,97890.91
2022-12-25T08:27:36.396Z,97883.91
2022-12-25T08:57:40.440Z,97880.84
2022-12-25T09:27:46.794Z,97871.34
2022-12-25T09:57:53.077Z,97819.06
2022-12-25T10:28:00.953Z,97798.66
2022-12-25T10:58:06.879Z,97793.00
2022-12-25T11:28:13.334Z,97757.31
2022-12-25T11:58:18.093Z,97679.31
2022-12-25T12:28:24.110Z,97659.09
2022-12-25T12:58:33.434Z,97641.03
2022-12-25T13:28:37.804Z,97616.91
2022-12-25T13:58:42.029Z,97597.19
2022-12-25T14:28:49.834Z,97632.97
2022-12-25T14:58:56.772Z,97639.91
2022-12-25T15:29:02.024Z,97649.19
2022-12-25T15:59:06.022Z,97616.00
2022-12-25T16:29:10.162Z,97634.50
2022-12-25T16:59:14.305Z,97608.78
2022-12-25T17:29:22.304Z,97624.09
2022-12-25T17:59:29.438Z,97611.88
2022-12-25T18:29:33.421Z,97634.50
2022-12-25T18:59:37.687Z,97619.97
2022-12-25T19:29:41.735Z,97599.28
2022-12-25T19:59:45.725Z,97609.66
2022-12-25T20:29:49.782Z,97619.22
2022-12-25T20:59:54.503Z,97636.50
2022-12-25T21:29:58.522Z,97641.47
2022-12-25T22:00:19.822Z,97657.88
2022-12-25T22:30:25.786Z,97666.16
2022-12-25T23:00:29.755Z,97687.25
2022-12-25T23:30:34.250Z,97693.22
